createdAt,value
2018-04-24T00:02:05.685Z,98122.58
2018-04-24T00:04:33.947Z,98126.41
2018-04-24T00:07:02.372Z,98117.02
2018-04-24T00:09:30.631Z,98114.03
2018-04-24T00:11:58.879Z,98122.98
2018-04-24T00:14:27.161Z,98117.86
2018-04-24T00:16:55.423Z,98121.28
2018-04-24T00:19:23.706Z,98134.81
2018-04-24T00:21:51.986Z,98134.36
2018-04-24T00:24:20.242Z,98130.12
2018-04-24T00:26:49.290Z,98130.58
2018-04-24T00:29:17.578Z,98124.23
2018-04-24T00:31:45.938Z,98121.66
2018-04-24T00:34:14.232Z,98122.05
2018-04-24T00:36:42.482Z,98123.79
2018-04-24T00:39:10.750Z,98131.02
2018-04-24T00:41:39.022Z,98128.89
2018-04-24T00:44:07.308Z,98124.16
2018-04-24T00:46:35.571Z,98126.25
2018-04-24T00:49:03.852Z,98116.91
2018-04-24T00:51:32.130Z,98120.70
2018-04-24T00:54:00.407Z,98115.57
2018-04-24T00:56:28.679Z,98110.08
2018-04-24T00:58:56.956Z,98103.67
2018-04-24T01:01:25.310Z,98102.44
2018-04-24T01:03:54.346Z,98104.98
2018-04-24T01:06:22.611Z,98104.09
2018-04-24T01:08:50.987Z,98098.98
2018-04-24T01:11:19.299Z,98100.25
2018-04-24T01:13:47.518Z,98102.78
2018-04-24T01:16:15.786Z,98100.66
2018-04-24T01:18:44.845Z,98108.69
2018-04-24T01:21:13.119Z,98107.45
2018-04-24T01:23:41.391Z,98104.06
2018-04-24T01:26:09.658Z,98109.09
2018-04-24T01:28:37.966Z,98113.42
2018-04-24T01:31:06.215Z,98110.84
2018-04-24T01:33:34.563Z,98110.39
2018-04-24T01:36:02.839Z,98110.73
2018-04-24T01:38:31.118Z,98103.50
2018-04-24T01:40:59.392Z,98096.63
2018-04-24T01:43:27.670Z,98089.44
2018-04-24T01:45:55.950Z,98092.41
2018-04-24T01:48:24.239Z,98103.47
2018-04-24T01:50:52.492Z,98098.29
2018-04-24T01:53:20.752Z,98100.05
2018-04-24T01:55:49.050Z,98095.33
2018-04-24T01:58:17.351Z,98102.05
2018-04-24T02:00:45.603Z,98100.78
2018-04-24T02:03:13.986Z,98102.45
2018-04-24T02:05:42.242Z,98093.19
2018-04-24T02:08:11.726Z,98087.68
2018-04-24T02:10:40.782Z,98090.66
2018-04-24T02:13:09.042Z,98081.73
2018-04-24T02:15:37.307Z,98083.84
2018-04-24T02:18:05.615Z,98092.73
2018-04-24T02:20:33.879Z,98096.57
2018-04-24T02:23:02.146Z,98104.96
2018-04-24T02:25:30.543Z,98110.31
2018-04-24T02:27:58.806Z,98105.23
2018-04-24T02:30:27.084Z,98102.41
2018-04-24T02:32:55.355Z,98109.26
2018-04-24T02:35:23.611Z,98108.48
2018-04-24T02:37:51.883Z,98108.05
2018-04-24T02:40:20.208Z,98105.05
2018-04-24T02:42:48.461Z,98115.28
2018-04-24T02:45:16.731Z,98109.34
2018-04-24T02:47:45.007Z,98102.09
2018-04-24T02:50:13.264Z,98096.16
2018-04-24T02:52:41.555Z,98084.69
2018-04-24T02:55:09.838Z,98077.86
2018-04-24T02:57:38.100Z,98083.40
2018-04-24T03:00:06.383Z,98086.45
2018-04-24T03:02:34.661Z,98084.33
2018-04-24T03:05:02.952Z,98089.02
2018-04-24T03:07:31.555Z,98074.55
2018-04-24T03:09:59.804Z,98078.82
2018-04-24T03:12:28.067Z,98084.34
2018-04-24T03:14:56.342Z,98078.77
2018-04-24T03:17:24.623Z,98075.87
2018-04-24T03:19:52.902Z,98082.27
2018-04-24T03:22:21.143Z,98075.94
2018-04-24T03:24:50.158Z,98054.28
2018-04-24T03:27:18.443Z,98053.01
2018-04-24T03:29:46.711Z,98044.47
2018-04-24T03:32:15.000Z,98041.47
2018-04-24T03:34:43.278Z,98049.46
2018-04-24T03:37:11.558Z,98060.52
2018-04-24T03:39:39.824Z,98070.81
2018-04-24T03:42:08.124Z,98063.58
2018-04-24T03:44:36.370Z,98065.34
2018-04-24T03:47:04.660Z,98060.70
2018-04-24T03:49:32.992Z,98055.61
2018-04-24T03:52:01.306Z,98053.09
2018-04-24T03:54:29.747Z,98048.81
2018-04-24T03:56:58.882Z,98048.42
2018-04-24T03:59:27.227Z,98034.78
2018-04-24T04:01:55.566Z,98025.39
2018-04-24T04:04:23.936Z,98021.99
2018-04-24T04:06:52.281Z,98030.50
2018-04-24T04:09:20.601Z,98022.40
2018-04-24T04:11:48.984Z,98019.41
2018-04-24T04:14:17.336Z,98005.34
2018-04-24T04:16:45.717Z,97997.68
2018-04-24T04:19:31.990Z,97996.83
2018-04-24T04:22:19.190Z,97993.02
2018-04-24T04:24:49.115Z,98001.94
2018-04-24T04:27:17.459Z,98007.51
2018-04-24T04:29:45.806Z,98010.48
2018-04-24T04:32:14.163Z,98015.58
2018-04-24T04:34:42.520Z,98018.98
2018-04-24T04:37:11.648Z,98020.69
2018-04-24T04:39:39.981Z,98018.56
2018-04-24T04:42:08.350Z,98020.72
2018-04-24T04:44:37.465Z,98014.73
2018-04-24T04:47:06.555Z,98008.36
2018-04-24T04:49:35.676Z,98005.36
2018-04-24T04:52:04.052Z,98006.64
2018-04-24T04:54:32.427Z,98005.80
2018-04-24T04:57:00.764Z,98006.63
2018-04-24T04:59:29.123Z,98004.06
2018-04-24T05:01:57.469Z,98006.64
2018-04-24T05:04:25.875Z,98007.89
2018-04-24T05:06:54.196Z,98017.27
2018-04-24T05:09:22.540Z,98027.05
2018-04-24T05:11:50.835Z,98026.20
2018-04-24T05:14:19.154Z,98034.33
2018-04-24T05:16:47.627Z,98036.47
2018-04-24T05:19:16.723Z,98032.14
2018-04-24T05:21:45.845Z,98041.14
2018-04-24T05:24:14.238Z,98048.77
2018-04-24T05:26:42.616Z,98033.83
2018-04-24T05:29:10.953Z,98033.36
2018-04-24T05:31:39.308Z,98032.89
2018-04-24T05:34:08.583Z,98031.95
2018-04-24T05:36:36.917Z,98031.44
2018-04-24T05:39:05.214Z,98033.19
2018-04-24T05:41:33.630Z,98035.19
2018-04-24T05:44:01.979Z,98032.90
2018-04-24T05:46:30.391Z,98030.19
2018-04-24T05:48:58.753Z,98042.59
2018-04-24T05:51:27.104Z,98038.20
2018-04-24T05:53:55.460Z,98049.11
2018-04-24T05:56:23.812Z,98050.22
2018-04-24T05:58:52.171Z,98054.81
2018-04-24T06:01:20.500Z,98063.13
2018-04-24T06:03:48.858Z,98059.69
2018-04-24T06:06:17.224Z,98066.80
2018-04-24T06:08:45.614Z,98078.75
2018-04-24T06:11:14.731Z,98066.67
2018-04-24T06:13:43.063Z,98065.87
2018-04-24T06:16:11.410Z,98078.27
2018-04-24T06:18:39.753Z,98083.45
2018-04-24T06:21:08.123Z,98085.58
2018-04-24T06:23:37.223Z,98082.09
2018-04-24T06:26:06.315Z,98088.02
2018-04-24T06:28:35.543Z,98087.75
2018-04-24T06:31:03.824Z,98079.63
2018-04-24T06:33:32.133Z,98089.61
2018-04-24T06:36:00.512Z,98093.45
2018-04-24T06:38:28.873Z,98085.59
2018-04-24T06:40:57.225Z,98079.58
2018-04-24T06:43:25.576Z,98083.11
2018-04-24T06:45:54.671Z,98081.73
2018-04-24T06:48:23.141Z,98080.84
2018-04-24T06:50:51.533Z,98074.00
2018-04-24T06:53:20.679Z,98082.17
2018-04-24T06:55:49.063Z,98076.41
2018-04-24T06:58:17.409Z,98080.58
2018-04-24T07:00:45.731Z,98081.99
2018-04-24T07:03:14.055Z,98074.16
2018-04-24T07:05:42.403Z,98077.41
2018-04-24T07:08:10.744Z,98074.72
2018-04-24T07:10:39.123Z,98082.66
2018-04-24T07:13:07.470Z,98091.05
2018-04-24T07:15:35.828Z,98093.28
2018-04-24T07:18:04.161Z,98094.17
2018-04-24T07:20:32.517Z,98090.00
2018-04-24T07:23:00.876Z,98093.64
2018-04-24T07:25:29.262Z,98098.50
2018-04-24T07:27:58.375Z,98096.83
2018-04-24T07:30:26.741Z,98087.48
2018-04-24T07:32:55.110Z,98088.73
2018-04-24T07:35:23.452Z,98085.06
2018-04-24T07:37:51.835Z,98082.95
2018-04-24T07:40:20.176Z,98080.45
2018-04-24T07:42:48.569Z,98081.64
2018-04-24T07:45:16.925Z,98079.77
2018-04-24T07:47:45.253Z,98083.16
2018-04-24T07:50:14.404Z,98086.59
2018-04-24T07:52:42.758Z,98093.92
2018-04-24T07:55:11.097Z,98094.75
2018-04-24T07:57:39.437Z,98094.11
2018-04-24T08:00:07.794Z,98089.55
2018-04-24T08:02:36.177Z,98085.37
2018-04-24T08:05:04.548Z,98093.41
2018-04-24T08:07:33.672Z,98081.21
2018-04-24T08:10:02.004Z,98082.20
2018-04-24T08:12:31.128Z,98077.36
2018-04-24T08:14:59.472Z,98081.15
2018-04-24T08:17:28.631Z,98080.28
2018-04-24T08:19:57.039Z,98088.50
2018-04-24T08:22:25.272Z,98079.98
2018-04-24T08:24:53.551Z,98083.56
2018-04-24T08:27:21.849Z,98084.39
2018-04-24T08:29:50.111Z,98085.27
2018-04-24T08:32:18.447Z,98086.76
2018-04-24T08:34:47.471Z,98097.27
2018-04-24T08:37:15.752Z,98087.97
2018-04-24T08:39:44.024Z,98089.34
2018-04-24T08:42:12.299Z,98089.84
2018-04-24T08:44:40.568Z,98085.23
2018-04-24T08:47:08.848Z,98081.51
2018-04-24T08:49:37.134Z,98085.16
2018-04-24T08:52:05.415Z,98081.27
2018-04-24T08:54:33.799Z,98088.44
2018-04-24T08:57:02.067Z,98091.99
2018-04-24T08:59:30.354Z,98089.35
2018-04-24T09:01:58.688Z,98097.84
2018-04-24T09:04:26.928Z,98086.16
2018-04-24T09:06:55.215Z,98086.30
2018-04-24T09:09:23.479Z,98091.38
2018-04-24T09:11:51.760Z,98083.62
2018-04-24T09:14:20.031Z,98084.94
2018-04-24T09:16:48.387Z,98073.11
2018-04-24T09:19:16.663Z,98074.50
2018-04-24T09:21:44.927Z,98065.83
2018-04-24T09:24:13.319Z,98069.58
2018-04-24T09:26:41.582Z,98066.85
2018-04-24T09:29:09.855Z,98064.72
2018-04-24T09:31:44.098Z,98067.24
2018-04-24T09:34:12.386Z,98064.12
2018-04-24T09:36:40.655Z,98060.71
2018-04-24T09:39:08.938Z,98062.78
2018-04-24T09:41:38.732Z,98051.15
2018-04-24T09:44:06.995Z,98052.55
2018-04-24T09:46:35.278Z,98047.60
2018-04-24T09:49:03.651Z,98063.19
2018-04-24T09:51:32.028Z,98052.02
2018-04-24T09:54:00.419Z,98056.84
2018-04-24T09:56:28.692Z,98063.49
2018-04-24T09:58:56.966Z,98061.17
2018-04-24T10:01:27.055Z,98062.46
2018-04-24T10:03:55.347Z,98059.11
2018-04-24T10:06:23.626Z,98061.90
2018-04-24T10:08:51.915Z,98066.66
2018-04-24T10:11:20.223Z,98064.14
2018-04-24T10:13:48.503Z,98065.47
2018-04-24T10:16:16.772Z,98064.37
2018-04-24T10:18:45.120Z,98063.45
2018-04-24T10:21:13.397Z,98070.44
2018-04-24T10:23:41.767Z,98068.05
2018-04-24T10:26:10.052Z,98072.87
2018-04-24T10:28:38.321Z,98068.25
2018-04-24T10:31:06.599Z,98066.17
2018-04-24T10:33:34.873Z,98065.73
2018-04-24T10:36:03.128Z,98074.60
2018-04-24T10:38:32.472Z,98067.84
2018-04-24T10:41:00.743Z,98076.89
2018-04-24T10:43:29.055Z,98072.64
2018-04-24T10:45:57.311Z,98065.95
2018-04-24T10:48:25.591Z,98062.14
2018-04-24T10:50:53.872Z,98060.62
2018-04-24T10:53:22.207Z,98064.63
2018-04-24T10:55:50.547Z,98059.50
2018-04-24T10:58:18.793Z,98061.34
2018-04-24T11:00:47.153Z,98058.46
2018-04-24T11:03:15.538Z,98069.17
2018-04-24T11:05:43.889Z,98060.14
2018-04-24T11:08:12.162Z,98062.27
2018-04-24T11:10:40.466Z,98061.69
2018-04-24T11:13:08.930Z,98066.67
2018-04-24T11:15:37.217Z,98060.58
2018-04-24T11:18:05.486Z,98062.58
2018-04-24T11:20:33.752Z,98063.55
2018-04-24T11:23:02.056Z,98057.57
2018-04-24T11:25:30.326Z,98061.48
2018-04-24T11:27:58.603Z,98060.66
2018-04-24T11:30:26.872Z,98065.23
2018-04-24T11:32:55.146Z,98059.54
2018-04-24T11:35:23.429Z,98060.39
2018-04-24T11:37:51.710Z,98048.45
2018-04-24T11:40:20.081Z,98044.29
2018-04-24T11:42:48.572Z,98048.04
2018-04-24T11:45:16.828Z,98030.82
2018-04-24T11:47:45.229Z,98036.20
2018-04-24T11:50:13.496Z,98032.76
2018-04-24T11:52:41.767Z,98031.94
2018-04-24T11:55:10.051Z,98030.41
2018-04-24T11:57:38.323Z,98024.97
2018-04-24T12:00:06.612Z,98023.12
2018-04-24T12:02:34.916Z,98020.21
2018-04-24T12:05:03.164Z,98020.58
2018-04-24T12:07:31.431Z,98023.25
2018-04-24T12:09:59.777Z,98028.84
2018-04-24T12:12:27.980Z,98020.47
2018-04-24T12:14:56.261Z,98009.67
2018-04-24T12:17:24.522Z,98001.67
2018-04-24T12:19:52.823Z,98004.66
2018-04-24T12:22:21.085Z,98003.07
2018-04-24T12:24:49.366Z,98000.33
2018-04-24T12:27:17.635Z,97997.46
2018-04-24T12:29:45.921Z,98001.63
2018-04-24T12:32:14.212Z,98007.50
2018-04-24T12:34:42.482Z,98002.41
2018-04-24T12:37:10.787Z,97990.11
2018-04-24T12:39:40.555Z,97997.53
2018-04-24T12:42:08.924Z,97987.02
2018-04-24T12:44:37.190Z,97989.31
2018-04-24T12:47:05.498Z,97984.04
2018-04-24T12:49:33.772Z,97971.45
2018-04-24T12:52:02.059Z,97970.06
2018-04-24T12:54:30.327Z,97964.47
2018-04-24T12:56:58.602Z,97958.97
2018-04-24T12:59:26.867Z,97958.94
2018-04-24T13:01:55.151Z,97956.58
2018-04-24T13:04:23.511Z,97962.20
2018-04-24T13:06:51.799Z,97954.87
2018-04-24T13:09:20.100Z,97962.83
2018-04-24T13:11:48.387Z,97949.05
2018-04-24T13:14:17.449Z,97933.56
2018-04-24T13:16:45.705Z,97940.25
2018-04-24T13:19:13.992Z,97943.44
2018-04-24T13:21:42.255Z,97944.45
2018-04-24T13:24:10.553Z,97931.19
2018-04-24T13:26:38.976Z,97934.70
2018-04-24T13:29:07.247Z,97937.23
2018-04-24T13:31:35.603Z,97929.38
2018-04-24T13:34:03.883Z,97929.32
2018-04-24T13:36:32.205Z,97924.64
2018-04-24T13:39:00.520Z,97924.25
2018-04-24T13:41:28.889Z,97922.37
2018-04-24T13:43:57.157Z,97920.55
2018-04-24T13:46:25.547Z,97913.47
2018-04-24T13:48:54.011Z,97909.13
2018-04-24T13:51:22.296Z,97907.34
2018-04-24T13:53:50.590Z,97900.18
2018-04-24T13:56:18.963Z,97909.21
2018-04-24T13:58:47.252Z,97896.78
2018-04-24T14:01:15.607Z,97894.42
2018-04-24T14:03:43.913Z,97893.55
2018-04-24T14:06:12.268Z,97897.23
2018-04-24T14:08:40.537Z,97895.66
2018-04-24T14:11:08.915Z,97895.69
2018-04-24T14:13:37.610Z,97895.03
2018-04-24T14:16:05.982Z,97880.31
2018-04-24T14:18:34.238Z,97879.20
2018-04-24T14:21:02.517Z,97870.72
2018-04-24T14:23:30.819Z,97874.94
2018-04-24T14:25:59.066Z,97873.45
2018-04-24T14:28:27.354Z,97868.38
2018-04-24T14:30:55.651Z,97861.14
2018-04-24T14:33:23.969Z,97854.84
2018-04-24T14:35:52.245Z,97855.65
2018-04-24T14:38:20.523Z,97860.56
2018-04-24T14:40:50.293Z,97859.89
2018-04-24T14:43:18.599Z,97850.72
2018-04-24T14:45:46.935Z,97852.19
2018-04-24T14:48:15.212Z,97845.06
2018-04-24T14:50:43.520Z,97845.62
2018-04-24T14:53:11.886Z,97851.45
2018-04-24T14:55:40.190Z,97849.90
2018-04-24T14:58:08.459Z,97847.84
2018-04-24T15:00:36.746Z,97846.62
2018-04-24T15:03:06.559Z,97851.53
2018-04-24T15:05:34.819Z,97843.16
2018-04-24T15:08:03.107Z,97848.17
2018-04-24T15:10:31.449Z,97857.73
2018-04-24T15:12:59.701Z,97857.55
2018-04-24T15:15:28.171Z,97839.17
2018-04-24T15:17:57.195Z,97836.23
2018-04-24T15:20:25.529Z,97833.34
2018-04-24T15:22:53.760Z,97837.95
2018-04-24T15:25:22.121Z,97852.62
2018-04-24T15:27:50.409Z,97847.56
2018-04-24T15:30:18.675Z,97837.88
2018-04-24T15:32:46.964Z,97835.33
2018-04-24T15:35:15.231Z,97838.50
2018-04-24T15:37:43.531Z,97835.48
2018-04-24T15:40:11.808Z,97844.91
2018-04-24T15:42:40.063Z,97840.48
2018-04-24T15:45:08.351Z,97852.69
2018-04-24T15:47:36.711Z,97838.47
2018-04-24T15:50:05.005Z,97835.61
2018-04-24T15:52:33.354Z,97827.79
2018-04-24T15:55:01.668Z,97841.63
2018-04-24T15:57:30.747Z,97826.78
2018-04-24T15:59:59.026Z,97825.82
2018-04-24T16:02:27.343Z,97824.23
2018-04-24T16:04:55.611Z,97828.02
2018-04-24T16:07:23.948Z,97818.82
2018-04-24T16:09:52.243Z,97822.03
2018-04-24T16:12:20.511Z,97818.42
2018-04-24T16:14:48.815Z,97813.41
2018-04-24T16:17:17.076Z,97807.92
2018-04-24T16:19:45.439Z,97808.93
2018-04-24T16:22:13.723Z,97804.15
2018-04-24T16:24:41.983Z,97797.29
2018-04-24T16:27:10.280Z,97796.84
2018-04-24T16:29:38.623Z,97798.87
2018-04-24T16:32:06.832Z,97793.95
2018-04-24T16:34:35.191Z,97788.24
2018-04-24T16:37:03.460Z,97793.87
2018-04-24T16:39:31.766Z,97785.65
2018-04-24T16:42:00.038Z,97787.53
2018-04-24T16:44:28.318Z,97786.01
2018-04-24T16:46:56.609Z,97786.27
2018-04-24T16:49:24.903Z,97781.93
2018-04-24T16:51:53.943Z,97781.21
2018-04-24T16:54:22.215Z,97775.79
2018-04-24T16:56:50.586Z,97774.59
2018-04-24T16:59:18.868Z,97769.56
2018-04-24T17:01:47.251Z,97769.19
2018-04-24T17:04:15.521Z,97768.15
2018-04-24T17:06:43.826Z,97756.88
2018-04-24T17:09:12.096Z,97764.12
2018-04-24T17:11:40.455Z,97751.63
2018-04-24T17:14:08.782Z,97751.77
2018-04-24T17:16:37.027Z,97751.00
2018-04-24T17:19:05.323Z,97749.91
2018-04-24T17:21:33.600Z,97751.91
2018-04-24T17:24:01.864Z,97757.66
2018-04-24T17:26:30.151Z,97763.18
2018-04-24T17:28:58.423Z,97768.55
2018-04-24T17:31:26.796Z,97763.85
2018-04-24T17:33:55.081Z,97769.59
2018-04-24T17:36:23.418Z,97773.44
2018-04-24T17:38:51.698Z,97776.10
2018-04-24T17:41:19.991Z,97774.36
2018-04-24T17:43:48.325Z,97771.23
2018-04-24T17:46:17.421Z,97772.82
2018-04-24T17:48:45.719Z,97771.52
2018-04-24T17:51:14.513Z,97763.98
2018-04-24T17:53:42.875Z,97760.55
2018-04-24T17:56:11.371Z,97761.85
2018-04-24T17:58:39.657Z,97756.37
2018-04-24T18:01:08.238Z,97759.30
2018-04-24T18:03:37.816Z,97758.88
2018-04-24T18:06:07.728Z,97751.25
2018-04-24T18:08:36.621Z,97756.63
2018-04-24T18:11:05.594Z,97748.17
2018-04-24T18:13:34.913Z,97739.61
2018-04-24T18:16:05.060Z,97727.86
2018-04-24T18:18:35.897Z,97730.53
2018-04-24T18:21:05.887Z,97728.97
2018-04-24T18:23:35.657Z,97732.21
2018-04-24T18:26:05.575Z,97725.84
2018-04-24T18:28:35.353Z,97733.59
2018-04-24T18:31:05.376Z,97731.08
2018-04-24T18:33:35.283Z,97729.13
2018-04-24T18:36:05.235Z,97728.89
2018-04-24T18:38:35.115Z,97733.89
2018-04-24T18:41:05.861Z,97733.03
2018-04-24T18:43:35.858Z,97732.42
2018-04-24T18:46:06.903Z,97733.06
2018-04-24T18:48:37.614Z,97729.97
2018-04-24T18:51:08.375Z,97733.87
2018-04-24T18:53:39.012Z,97729.72
2018-04-24T18:56:09.682Z,97730.80
2018-04-24T18:58:39.510Z,97726.53
2018-04-24T19:01:09.489Z,97726.91
2018-04-24T19:03:39.507Z,97715.78
2018-04-24T19:06:09.885Z,97725.92
2018-04-24T19:08:40.585Z,97716.24
2018-04-24T19:11:10.935Z,97719.38
2018-04-24T19:13:42.250Z,97721.92
2018-04-24T19:16:12.441Z,97726.72
2018-04-24T19:18:47.586Z,97721.86
2018-04-24T19:21:17.475Z,97722.09
2018-04-24T19:23:47.741Z,97719.86
2018-04-24T19:26:18.303Z,97716.05
2018-04-24T19:28:48.001Z,97719.38
2018-04-24T19:31:23.579Z,97724.84
2018-04-24T19:33:53.402Z,97719.03
2018-04-24T19:36:23.211Z,97729.73
2018-04-24T19:38:59.054Z,97727.92
2018-04-24T19:41:34.116Z,97731.59
2018-04-24T19:44:03.939Z,97722.59
2018-04-24T19:46:34.057Z,97721.41
2018-04-24T19:49:09.194Z,97717.00
2018-04-24T19:51:39.323Z,97713.16
2018-04-24T19:54:09.262Z,97714.94
2018-04-24T19:56:39.258Z,97713.78
2018-04-24T19:59:09.186Z,97711.72
2018-04-24T20:01:39.293Z,97702.62
2018-04-24T20:04:09.686Z,97702.48
2018-04-24T20:06:39.915Z,97699.86
2018-04-24T20:09:09.726Z,97701.02
2018-04-24T20:11:39.657Z,97700.11
2018-04-24T20:14:09.613Z,97700.04
2018-04-24T20:16:39.451Z,97695.58
2018-04-24T20:19:10.695Z,97693.19
2018-04-24T20:21:41.748Z,97691.13
2018-04-24T20:24:11.554Z,97691.41
2018-04-24T20:26:42.274Z,97692.80
2018-04-24T20:29:12.133Z,97688.29
2018-04-24T20:31:42.024Z,97685.07
2018-04-24T20:34:12.603Z,97679.09
2018-04-24T20:36:42.516Z,97679.53
2018-04-24T20:39:12.276Z,97672.31
2018-04-24T20:41:43.359Z,97677.00
2018-04-24T20:44:13.424Z,97671.56
2018-04-24T20:46:44.079Z,97677.13
2018-04-24T20:49:13.851Z,97668.06
2018-04-24T20:51:43.760Z,97668.87
2018-04-24T20:54:13.839Z,97660.30
2018-04-24T20:56:43.821Z,97660.87
2018-04-24T20:59:13.287Z,97663.31
2018-04-24T21:01:41.708Z,97665.80
2018-04-24T21:04:10.006Z,97657.03
2018-04-24T21:06:38.303Z,97651.55
2018-04-24T21:09:06.592Z,97649.56
2018-04-24T21:11:34.983Z,97643.20
2018-04-24T21:14:04.046Z,97638.25
2018-04-24T21:16:32.349Z,97646.22
2018-04-24T21:19:00.637Z,97639.63
2018-04-24T21:21:29.714Z,97635.19
2018-04-24T21:23:57.991Z,97636.61
2018-04-24T21:26:26.256Z,97631.34
2018-04-24T21:28:54.535Z,97632.28
2018-04-24T21:31:22.797Z,97627.75
2018-04-24T21:33:51.091Z,97625.86
2018-04-24T21:36:19.350Z,97620.60
2018-04-24T21:38:47.617Z,97617.59
2018-04-24T21:41:16.019Z,97614.84
2018-04-24T21:43:44.262Z,97617.58
2018-04-24T21:46:12.651Z,97611.11
2018-04-24T21:48:41.011Z,97618.00
2018-04-24T21:51:09.279Z,97612.02
2018-04-24T21:53:37.562Z,97616.07
2018-04-24T21:56:05.845Z,97613.38
2018-04-24T21:58:34.135Z,97603.13
2018-04-24T22:01:02.587Z,97601.00
2018-04-24T22:03:30.848Z,97600.23
2018-04-24T22:05:59.891Z,97593.56
2018-04-24T22:08:28.244Z,97583.36
2018-04-24T22:10:56.532Z,97583.29
2018-04-24T22:13:24.889Z,97581.79
2018-04-24T22:15:53.086Z,97583.23
2018-04-24T22:18:21.364Z,97582.46
2018-04-24T22:20:49.726Z,97574.92
2018-04-24T22:23:18.127Z,97573.20
2018-04-24T22:25:46.407Z,97577.50
2018-04-24T22:28:14.683Z,97573.31
2018-04-24T22:30:42.962Z,97569.81
2018-04-24T22:33:11.234Z,97565.94
2018-04-24T22:35:39.520Z,97565.10
2018-04-24T22:38:07.783Z,97562.52
2018-04-24T22:40:36.085Z,97563.98
2018-04-24T22:45:31.923Z,97566.46
2018-04-24T22:48:01.079Z,97559.65
2018-04-24T22:50:29.351Z,97557.66
2018-04-24T22:52:57.611Z,97552.45
2018-04-24T22:55:25.903Z,97550.24
2018-04-24T22:57:54.163Z,97552.86
2018-04-24T23:00:22.470Z,97549.14
2018-04-24T23:02:50.747Z,97546.50
2018-04-24T23:05:19.014Z,97554.07
2018-04-24T23:07:47.293Z,97543.73
2018-04-24T23:10:33.452Z,97537.10
2018-04-24T23:13:20.247Z,97539.95
2018-04-24T23:16:06.223Z,97533.98
2018-04-24T23:18:53.227Z,97532.36
2018-04-24T23:21:20.766Z,97536.16
2018-04-24T23:23:49.042Z,97533.16
2018-04-24T23:26:17.303Z,97532.16
2018-04-24T23:28:45.598Z,97528.01
2018-04-24T23:31:13.975Z,97525.97
2018-04-24T23:33:42.258Z,97530.02
2018-04-24T23:36:10.518Z,97524.56
2018-04-24T23:38:38.785Z,97517.53
2018-04-24T23:41:07.079Z,97513.80
2018-04-24T23:43:35.345Z,97506.02
2018-04-24T23:46:03.735Z,97502.68
2018-04-24T23:48:31.994Z,97497.98
2018-04-24T23:51:00.264Z,97491.90
2018-04-24T23:53:28.576Z,97488.84
2018-04-24T23:55:56.948Z,97486.09
2018-04-24T23:58:25.242Z,97480.50
